Jonesboro, Arkansas
Current Conditions -  °F | °C
As of 9:53 PM on Saturday 24 Jan 2015 (Local Time) from KJBR Reporting Station
Clear Clear  
Wind Chill: 36°   Ceiling: Unl
Heat Index: 41°   Visibility: 10mi
Dew Point: 33°   Wind: 7mph
Humidity: 73%   Direction: 230°SW
Pressure: 29.88"   Gusts: NA
Location:  35.84°N, 90.7°W
Report Text: KJBR 250353Z AUTO 23006KT 10SM CLR 05/01 A2988 RMK AO2 SLP119 T00500006
Loading
Personal Weather Stations






























Interactive Weather Map New forecast layout! Learn more

10-Day Weather Forecast

Advertisements
Track Severe Weather on mobile